createdAt,value
2023-05-10T00:01:15.102Z,0.00
2023-05-10T00:03:44.372Z,0.00
2023-05-10T00:06:13.091Z,0.00
2023-05-10T00:08:41.033Z,0.00
2023-05-10T00:11:09.040Z,0.00
2023-05-10T00:13:37.148Z,0.00
2023-05-10T00:16:05.286Z,0.00
2023-05-10T00:18:33.421Z,0.00
2023-05-10T00:21:02.821Z,0.00
2023-05-10T00:23:30.929Z,0.00
2023-05-10T00:25:58.900Z,0.00
2023-05-10T00:28:26.879Z,0.00
2023-05-10T00:30:54.616Z,0.00
2023-05-10T00:33:22.907Z,0.00
2023-05-10T00:35:51.223Z,0.00
2023-05-10T00:38:20.494Z,0.00
2023-05-10T00:40:48.932Z,0.00
2023-05-10T00:43:25.319Z,0.00
2023-05-10T00:45:53.620Z,0.00
2023-05-10T00:48:21.710Z,0.00
2023-05-10T00:50:50.060Z,0.00
2023-05-10T00:53:18.892Z,0.00
2023-05-10T00:55:48.292Z,0.00
2023-05-10T00:58:17.044Z,0.00
2023-05-10T01:00:45.512Z,0.00
2023-05-10T01:03:14.105Z,0.00
2023-05-10T01:05:43.217Z,0.00
2023-05-10T01:08:11.275Z,0.00
2023-05-10T01:10:39.575Z,0.00
2023-05-10T01:13:09.047Z,0.00
2023-05-10T01:15:37.808Z,0.00
2023-05-10T01:18:05.945Z,0.00
2023-05-10T01:20:40.357Z,0.00
2023-05-10T01:23:32.221Z,0.00
2023-05-10T01:26:36.190Z,0.00
2023-05-10T01:29:32.464Z,0.00
2023-05-10T01:32:18.056Z,0.00
2023-05-10T01:34:55.368Z,0.00
2023-05-10T01:37:29.475Z,0.00
2023-05-10T01:40:02.471Z,0.00
2023-05-10T01:42:38.701Z,0.00
2023-05-10T01:45:16.629Z,0.00
2023-05-10T01:47:49.014Z,0.00
2023-05-10T01:50:20.964Z,0.00
2023-05-10T01:52:54.052Z,0.00
2023-05-10T01:55:25.462Z,0.00
2023-05-10T01:57:59.012Z,0.00
2023-05-10T02:00:28.327Z,0.00
2023-05-10T02:02:58.628Z,0.00
2023-05-10T02:05:28.812Z,0.00
2023-05-10T02:07:58.855Z,0.00
2023-05-10T02:10:27.999Z,0.00
2023-05-10T02:12:57.272Z,0.00
2023-05-10T02:15:26.902Z,0.00
2023-05-10T02:17:59.289Z,0.00
2023-05-10T02:20:28.320Z,0.00
2023-05-10T02:22:58.939Z,0.00
2023-05-10T02:25:28.168Z,0.00
2023-05-10T02:27:58.766Z,0.00
2023-05-10T02:30:28.102Z,0.00
2023-05-10T02:32:58.740Z,0.00
2023-05-10T02:35:28.309Z,0.00
2023-05-10T02:37:56.997Z,0.00
2023-05-10T02:40:28.554Z,0.00
2023-05-10T02:43:00.240Z,0.00
2023-05-10T02:45:32.365Z,0.00
2023-05-10T02:48:02.242Z,0.00
2023-05-10T02:50:34.457Z,0.00
2023-05-10T02:53:04.218Z,0.00
2023-05-10T02:55:39.019Z,0.00
2023-05-10T02:58:06.992Z,0.00
2023-05-10T03:00:35.182Z,0.00
2023-05-10T03:03:04.614Z,0.00
2023-05-10T03:05:32.669Z,0.00
2023-05-10T03:08:05.247Z,0.00
2023-05-10T03:10:34.729Z,0.00
2023-05-10T03:13:15.279Z,0.03
2023-05-10T03:15:53.277Z,0.00
2023-05-10T03:18:25.099Z,0.00
2023-05-10T03:20:59.895Z,0.00
2023-05-10T03:23:32.239Z,0.00
2023-05-10T03:26:01.617Z,0.00
2023-05-10T03:28:30.310Z,0.00
2023-05-10T03:30:58.884Z,0.00
2023-05-10T03:33:28.445Z,0.00
2023-05-10T03:35:56.506Z,0.00
2023-05-10T03:38:24.445Z,0.00
2023-05-10T03:40:52.430Z,0.00
2023-05-10T03:43:20.442Z,0.00
2023-05-10T03:45:48.589Z,0.00
2023-05-10T03:48:16.860Z,0.00
2023-05-10T03:50:46.247Z,0.00
2023-05-10T03:53:15.211Z,0.00
2023-05-10T03:55:43.153Z,0.10
2023-05-10T03:58:13.203Z,0.00
2023-05-10T04:00:44.743Z,0.08
2023-05-10T04:03:13.469Z,0.00
2023-05-10T04:05:41.769Z,0.00
2023-05-10T04:08:11.081Z,0.10
2023-05-10T04:10:39.960Z,0.00
2023-05-10T04:13:08.177Z,0.00
2023-05-10T04:15:36.898Z,0.00
2023-05-10T04:18:06.520Z,0.00
2023-05-10T04:20:35.928Z,0.00
2023-05-10T04:23:04.057Z,0.00
2023-05-10T04:25:36.487Z,0.00
2023-05-10T04:28:04.627Z,0.00
2023-05-10T04:30:32.777Z,0.00
2023-05-10T04:33:00.957Z,0.00
2023-05-10T04:35:30.504Z,0.00
2023-05-10T04:37:58.418Z,0.00
2023-05-10T04:40:26.379Z,0.10
2023-05-10T04:42:55.657Z,0.00
2023-05-10T04:45:23.730Z,0.00
2023-05-10T04:47:51.691Z,0.05
2023-05-10T04:50:20.052Z,0.00
2023-05-10T04:52:48.035Z,0.00
2023-05-10T04:55:15.914Z,0.00
2023-05-10T04:57:43.984Z,0.00
2023-05-10T05:00:15.291Z,0.05
2023-05-10T05:02:45.034Z,0.20
2023-05-10T05:05:13.029Z,0.10
2023-05-10T05:07:41.218Z,0.00
2023-05-10T05:10:10.819Z,0.00
2023-05-10T05:12:39.228Z,0.00
2023-05-10T05:15:09.934Z,0.00
2023-05-10T05:17:39.636Z,0.00
2023-05-10T05:20:09.132Z,0.00
2023-05-10T05:22:38.342Z,0.00
2023-05-10T05:25:07.950Z,0.00
2023-05-10T05:27:36.105Z,0.00
2023-05-10T05:30:05.095Z,0.00
2023-05-10T05:32:33.284Z,0.08
2023-05-10T05:35:02.592Z,0.08
2023-05-10T05:37:30.544Z,0.20
2023-05-10T05:39:58.645Z,0.08
2023-05-10T05:42:27.626Z,0.00
2023-05-10T05:44:55.609Z,0.00
2023-05-10T05:47:23.857Z,0.00
2023-05-10T05:49:51.704Z,0.00
2023-05-10T05:52:22.193Z,0.00
2023-05-10T05:54:50.726Z,0.00
2023-05-10T05:57:18.786Z,0.00
2023-05-10T05:59:47.215Z,0.00
2023-05-10T06:02:17.672Z,0.00
2023-05-10T06:04:46.010Z,0.00
2023-05-10T06:07:14.075Z,0.00
2023-05-10T06:09:43.587Z,0.00
2023-05-10T06:12:12.731Z,0.00
2023-05-10T06:14:41.181Z,0.00
2023-05-10T06:17:09.194Z,0.10
2023-05-10T06:19:38.211Z,0.00
2023-05-10T06:22:06.622Z,0.00
2023-05-10T06:24:34.910Z,0.00
2023-05-10T06:27:05.310Z,0.00
2023-05-10T06:29:33.427Z,0.10
2023-05-10T06:32:01.608Z,0.00
2023-05-10T06:34:29.851Z,0.10
2023-05-10T06:36:58.013Z,0.10
2023-05-10T06:39:26.485Z,0.10
2023-05-10T06:41:55.461Z,0.00
2023-05-10T06:44:24.932Z,0.00
2023-05-10T06:46:54.503Z,0.10
2023-05-10T06:49:22.549Z,0.05
2023-05-10T06:51:50.614Z,0.00
2023-05-10T06:54:18.751Z,0.10
2023-05-10T06:56:47.207Z,0.10
2023-05-10T06:59:16.317Z,0.10
2023-05-10T07:01:46.178Z,0.00
2023-05-10T07:04:14.852Z,0.00
2023-05-10T07:06:43.213Z,0.00
2023-05-10T07:09:11.445Z,0.00
2023-05-10T07:11:39.624Z,0.10
2023-05-10T07:14:08.123Z,0.00
2023-05-10T07:16:37.324Z,0.00
2023-05-10T07:19:07.501Z,0.00
2023-05-10T07:21:36.264Z,0.00
2023-05-10T07:24:04.773Z,0.00
2023-05-10T07:26:32.965Z,0.00
2023-05-10T07:29:01.471Z,0.00
2023-05-10T07:31:29.531Z,0.10
2023-05-10T07:33:57.967Z,0.00
2023-05-10T07:36:27.508Z,0.00
2023-05-10T07:38:55.928Z,0.00
2023-05-10T07:41:24.259Z,0.00
2023-05-10T07:43:52.379Z,0.10
2023-05-10T07:46:20.492Z,0.00
2023-05-10T07:48:48.874Z,0.00
2023-05-10T07:51:16.908Z,0.00
2023-05-10T07:53:46.352Z,0.10
2023-05-10T07:56:26.109Z,0.00
2023-05-10T07:58:54.378Z,0.00
2023-05-10T08:01:22.570Z,0.00
2023-05-10T08:03:52.147Z,0.00
2023-05-10T08:06:21.257Z,0.10
2023-05-10T08:08:51.775Z,0.00
2023-05-10T08:11:20.547Z,0.00
2023-05-10T08:13:50.042Z,0.00
2023-05-10T08:16:18.658Z,0.00
2023-05-10T08:18:48.106Z,0.00
2023-05-10T08:21:16.935Z,0.00
2023-05-10T08:23:45.267Z,0.00
2023-05-10T08:26:14.852Z,0.00
2023-05-10T08:28:42.825Z,0.00
2023-05-10T08:31:11.044Z,0.00
2023-05-10T08:33:39.127Z,0.00
2023-05-10T08:36:07.263Z,0.00
2023-05-10T08:38:35.717Z,0.00
2023-05-10T08:41:04.643Z,0.00
2023-05-10T08:43:34.386Z,0.00
2023-05-10T08:46:04.087Z,0.00
2023-05-10T08:48:32.486Z,0.00
2023-05-10T08:51:03.133Z,0.00
2023-05-10T08:53:35.236Z,0.00
2023-05-10T08:56:04.802Z,0.00
2023-05-10T08:58:34.591Z,0.00
2023-05-10T09:01:03.392Z,0.00
2023-05-10T09:03:31.888Z,0.00
2023-05-10T09:06:00.171Z,0.00
2023-05-10T09:08:28.848Z,0.00
2023-05-10T09:10:57.502Z,0.00
2023-05-10T09:13:27.061Z,0.00
2023-05-10T09:15:57.631Z,0.00
2023-05-10T09:18:28.411Z,0.00
2023-05-10T09:20:56.984Z,0.00
2023-05-10T09:23:29.776Z,0.00
2023-05-10T09:26:05.638Z,0.00
2023-05-10T09:28:37.010Z,0.00
2023-05-10T09:31:06.626Z,0.00
2023-05-10T09:33:46.095Z,0.00
2023-05-10T09:36:14.956Z,0.00
2023-05-10T09:38:50.502Z,0.00
2023-05-10T09:41:19.538Z,0.00
2023-05-10T09:43:47.748Z,0.00
2023-05-10T09:46:17.360Z,0.00
2023-05-10T09:48:47.902Z,0.00
2023-05-10T09:51:22.531Z,0.00
2023-05-10T09:53:51.730Z,0.00
2023-05-10T09:56:35.935Z,0.00
2023-05-10T09:59:08.086Z,0.00
2023-05-10T10:01:38.196Z,0.00
2023-05-10T10:04:08.266Z,0.00
2023-05-10T10:06:39.725Z,0.00
2023-05-10T10:09:08.444Z,0.00
2023-05-10T10:11:37.509Z,0.00
2023-05-10T10:14:06.232Z,0.00
2023-05-10T10:16:35.114Z,0.00
2023-05-10T10:19:04.591Z,0.00
2023-05-10T10:21:32.739Z,0.00
2023-05-10T10:24:00.828Z,0.00
2023-05-10T10:26:29.382Z,0.00
2023-05-10T10:29:08.608Z,0.00
2023-05-10T10:31:41.310Z,0.00
2023-05-10T10:34:15.141Z,0.00
2023-05-10T10:36:45.583Z,0.00
2023-05-10T10:39:14.826Z,0.00
2023-05-10T10:41:52.219Z,0.00
2023-05-10T10:44:37.763Z,0.00
2023-05-10T10:47:09.729Z,0.00
2023-05-10T10:49:46.293Z,0.00
2023-05-10T10:52:35.252Z,0.00
2023-05-10T10:55:06.243Z,0.00
2023-05-10T10:57:35.753Z,0.00
2023-05-10T11:00:28.864Z,0.00
2023-05-10T11:03:00.053Z,0.00
2023-05-10T11:05:47.805Z,0.00
2023-05-10T11:08:18.870Z,0.00
2023-05-10T11:10:56.208Z,0.00
2023-05-10T11:13:32.052Z,0.00
2023-05-10T11:16:01.199Z,0.00
2023-05-10T11:18:30.689Z,0.00
2023-05-10T11:21:03.853Z,0.00
2023-05-10T11:23:33.263Z,0.00
2023-05-10T11:26:02.263Z,0.00
2023-05-10T11:28:30.338Z,0.00
2023-05-10T11:30:59.187Z,0.00
2023-05-10T11:33:27.266Z,0.00
2023-05-10T11:35:55.557Z,0.00
2023-05-10T11:38:25.027Z,0.00
2023-05-10T11:40:55.391Z,0.00
2023-05-10T11:43:31.606Z,0.00
2023-05-10T11:45:59.915Z,0.00
2023-05-10T11:48:27.972Z,0.00
2023-05-10T11:50:58.082Z,0.00
2023-05-10T11:53:28.513Z,0.00
2023-05-10T11:55:56.453Z,0.00
2023-05-10T11:58:25.044Z,0.00
2023-05-10T12:00:53.278Z,0.00
2023-05-10T12:03:21.513Z,0.00
2023-05-10T12:05:49.832Z,0.00
2023-05-10T12:08:22.128Z,0.00
2023-05-10T12:10:51.600Z,0.00
2023-05-10T12:13:21.439Z,0.00
2023-05-10T12:15:49.758Z,0.00
2023-05-10T12:18:25.718Z,0.00
2023-05-10T12:20:54.731Z,0.00
2023-05-10T12:23:23.432Z,0.00
2023-05-10T12:25:54.959Z,0.00
2023-05-10T12:28:22.929Z,0.00
2023-05-10T12:30:51.297Z,0.00
2023-05-10T12:33:19.716Z,0.00
2023-05-10T12:35:49.790Z,0.00
2023-05-10T12:38:30.524Z,0.00
2023-05-10T12:41:01.639Z,0.00
2023-05-10T12:43:30.061Z,0.00
2023-05-10T12:45:58.292Z,0.00
2023-05-10T12:48:27.219Z,0.00
2023-05-10T12:50:55.490Z,0.00
2023-05-10T12:53:23.815Z,0.00
2023-05-10T12:55:51.817Z,0.00
2023-05-10T12:58:35.012Z,0.00
2023-05-10T13:01:04.156Z,0.00
2023-05-10T13:03:32.675Z,0.00
2023-05-10T13:06:01.030Z,0.00
2023-05-10T13:08:34.448Z,0.00
2023-05-10T13:11:03.366Z,0.00
2023-05-10T13:13:32.897Z,0.00
2023-05-10T13:16:03.853Z,0.00
2023-05-10T13:18:31.943Z,0.00
2023-05-10T13:21:00.278Z,0.00
2023-05-10T13:23:31.618Z,0.00
2023-05-10T13:25:59.822Z,0.00
2023-05-10T13:28:27.789Z,0.10
2023-05-10T13:30:57.396Z,0.00
2023-05-10T13:33:25.599Z,0.00
2023-05-10T13:35:55.672Z,0.00
2023-05-10T13:38:24.070Z,0.35
2023-05-10T13:40:53.818Z,0.00
2023-05-10T13:43:22.008Z,0.00
2023-05-10T13:45:50.171Z,0.00
2023-05-10T13:48:19.727Z,0.00
2023-05-10T13:50:48.224Z,0.00
2023-05-10T13:53:16.445Z,0.00
2023-05-10T13:55:44.428Z,0.00
2023-05-10T13:58:13.181Z,0.00
2023-05-10T14:00:41.467Z,0.00
2023-05-10T14:03:12.059Z,0.00
2023-05-10T14:05:42.006Z,0.00
2023-05-10T14:08:11.028Z,0.00
2023-05-10T14:10:39.091Z,0.00
2023-05-10T14:13:07.204Z,0.00
2023-05-10T14:15:35.345Z,0.00
2023-05-10T14:18:03.423Z,0.00
2023-05-10T14:20:33.072Z,0.10
2023-05-10T14:23:02.640Z,0.10
2023-05-10T14:25:30.702Z,0.00
2023-05-10T14:27:59.018Z,0.10
2023-05-10T14:30:27.220Z,0.00
2023-05-10T14:32:56.364Z,0.00
2023-05-10T14:35:24.998Z,0.10
2023-05-10T14:37:53.428Z,0.20
2023-05-10T14:40:22.759Z,0.10
2023-05-10T14:42:51.076Z,0.10
2023-05-10T14:45:19.359Z,0.10
2023-05-10T14:47:47.435Z,0.10
2023-05-10T14:50:28.246Z,0.10
2023-05-10T14:53:03.834Z,0.10
2023-05-10T14:55:33.692Z,0.10
2023-05-10T14:58:01.977Z,0.10
2023-05-10T15:00:31.348Z,0.40
2023-05-10T15:02:59.969Z,0.13
2023-05-10T15:05:28.301Z,0.10
2023-05-10T15:07:56.837Z,0.08
2023-05-10T15:10:24.812Z,0.10
2023-05-10T15:12:54.210Z,0.10
2023-05-10T15:15:22.570Z,0.20
2023-05-10T15:17:50.696Z,0.10
2023-05-10T15:20:18.957Z,0.20
2023-05-10T15:22:46.989Z,0.40
2023-05-10T15:25:16.938Z,0.10
2023-05-10T15:27:45.843Z,0.10
2023-05-10T15:30:16.138Z,0.15
2023-05-10T15:32:44.217Z,0.10
2023-05-10T15:35:12.784Z,0.10
2023-05-10T15:37:41.064Z,0.10
2023-05-10T15:40:09.831Z,0.10
2023-05-10T15:42:38.092Z,0.10
2023-05-10T15:45:07.044Z,0.20
2023-05-10T15:47:36.519Z,0.10
2023-05-10T15:50:04.746Z,0.10
2023-05-10T15:52:32.724Z,0.10
2023-05-10T15:55:00.669Z,0.10
2023-05-10T15:57:28.612Z,0.10
2023-05-10T15:59:58.236Z,0.10
2023-05-10T16:02:26.281Z,0.10
2023-05-10T16:04:55.790Z,0.10
2023-05-10T16:07:23.793Z,0.10
2023-05-10T16:09:51.780Z,0.17
2023-05-10T16:12:20.072Z,0.10
2023-05-10T16:14:48.457Z,0.10
2023-05-10T16:17:16.849Z,0.10
2023-05-10T16:19:45.096Z,0.40
2023-05-10T16:22:14.556Z,0.15
2023-05-10T16:24:42.746Z,0.30
2023-05-10T16:27:12.491Z,0.10
2023-05-10T16:29:40.719Z,0.10
2023-05-10T16:32:08.693Z,0.15
2023-05-10T16:34:36.941Z,0.10
2023-05-10T16:37:06.397Z,0.43
2023-05-10T16:39:35.969Z,0.28
2023-05-10T16:42:04.393Z,0.45
2023-05-10T16:44:33.209Z,0.30
2023-05-10T16:47:01.651Z,0.25
2023-05-10T16:49:30.053Z,0.22
2023-05-10T16:51:58.323Z,0.30
2023-05-10T16:54:26.576Z,0.20
2023-05-10T16:56:56.084Z,0.22
2023-05-10T16:59:25.362Z,0.63
2023-05-10T17:01:53.911Z,0.28
2023-05-10T17:04:22.446Z,0.20
2023-05-10T17:06:50.866Z,0.10
2023-05-10T17:09:20.302Z,0.45
2023-05-10T17:11:48.437Z,0.10
2023-05-10T17:14:17.910Z,0.52
2023-05-10T17:16:46.336Z,0.25
2023-05-10T17:19:14.859Z,0.22
2023-05-10T17:21:43.160Z,0.10
2023-05-10T17:24:11.589Z,0.20
2023-05-10T17:26:40.493Z,0.50
2023-05-10T17:29:09.658Z,0.82
2023-05-10T17:31:40.944Z,0.20
2023-05-10T17:34:09.433Z,0.35
2023-05-10T17:36:38.207Z,0.20
2023-05-10T17:39:06.474Z,0.10
2023-05-10T17:41:39.736Z,0.40
2023-05-10T17:44:08.011Z,0.47
2023-05-10T17:46:36.956Z,0.20
2023-05-10T17:49:07.428Z,0.30
2023-05-10T17:51:35.750Z,0.10
2023-05-10T17:54:05.103Z,0.28
2023-05-10T17:56:34.129Z,0.52
2023-05-10T17:59:03.909Z,0.30
2023-05-10T18:01:32.526Z,0.10
2023-05-10T18:04:01.983Z,0.25
2023-05-10T18:06:37.387Z,0.10
2023-05-10T18:09:09.122Z,0.20
2023-05-10T18:11:39.017Z,0.22
2023-05-10T18:14:07.187Z,0.10
2023-05-10T18:16:35.701Z,0.25
2023-05-10T18:19:04.467Z,0.40
2023-05-10T18:21:34.602Z,0.10
2023-05-10T18:24:03.065Z,0.10
2023-05-10T18:26:31.056Z,0.10
2023-05-10T18:29:01.619Z,0.10
2023-05-10T18:31:30.202Z,0.20
2023-05-10T18:33:58.481Z,0.10
2023-05-10T18:36:27.566Z,0.10
2023-05-10T18:38:57.718Z,0.15
2023-05-10T18:41:26.905Z,0.30
2023-05-10T18:43:55.238Z,0.40
2023-05-10T18:46:24.207Z,0.20
2023-05-10T18:48:52.647Z,0.22
2023-05-10T18:51:22.113Z,0.15
2023-05-10T18:53:50.477Z,0.20
2023-05-10T18:56:20.272Z,0.10
2023-05-10T18:58:48.450Z,0.30
2023-05-10T19:01:17.206Z,0.10
2023-05-10T19:03:45.635Z,0.10
2023-05-10T19:06:14.103Z,0.20
2023-05-10T19:08:42.086Z,0.10
2023-05-10T19:11:10.963Z,0.10
2023-05-10T19:13:40.847Z,0.13
2023-05-10T19:16:14.317Z,0.10
2023-05-10T19:18:45.453Z,0.17
2023-05-10T19:21:13.851Z,0.10
2023-05-10T19:23:43.053Z,0.03
2023-05-10T19:26:12.635Z,0.00
2023-05-10T19:28:42.341Z,0.10
2023-05-10T19:31:10.616Z,0.00
2023-05-10T19:33:38.802Z,0.10
2023-05-10T19:36:07.233Z,0.10
2023-05-10T19:38:35.498Z,0.00
2023-05-10T19:41:04.063Z,0.10
2023-05-10T19:43:34.640Z,0.00
2023-05-10T19:46:04.542Z,0.00
2023-05-10T19:48:33.164Z,0.00
2023-05-10T19:51:02.319Z,0.00
2023-05-10T19:53:30.460Z,0.00
2023-05-10T19:56:04.430Z,0.00
2023-05-10T19:58:33.255Z,0.00
2023-05-10T20:01:01.683Z,0.00
2023-05-10T20:03:31.282Z,0.00
2023-05-10T20:05:59.730Z,0.00
2023-05-10T20:08:27.927Z,0.00
2023-05-10T20:10:57.847Z,0.00
2023-05-10T20:13:25.933Z,0.00
2023-05-10T20:15:56.929Z,0.00
2023-05-10T20:18:25.614Z,0.00
2023-05-10T20:21:01.477Z,0.08
2023-05-10T20:23:29.481Z,0.00
2023-05-10T20:25:57.794Z,0.00
2023-05-10T20:28:27.213Z,0.10
2023-05-10T20:31:00.611Z,0.00
2023-05-10T20:33:28.819Z,0.00
2023-05-10T20:35:58.846Z,0.00
2023-05-10T20:38:26.808Z,0.00
2023-05-10T20:40:55.470Z,0.00
2023-05-10T20:43:23.537Z,0.00
2023-05-10T20:45:51.864Z,0.00
2023-05-10T20:48:20.090Z,0.00
2023-05-10T20:50:48.364Z,0.00
2023-05-10T20:53:18.514Z,0.00
2023-05-10T20:55:47.175Z,0.00
2023-05-10T20:58:15.200Z,0.00
2023-05-10T21:00:43.350Z,0.10
2023-05-10T21:03:11.631Z,0.20
2023-05-10T21:05:39.882Z,0.00
2023-05-10T21:08:07.904Z,0.00
2023-05-10T21:10:37.425Z,0.00
2023-05-10T21:13:05.539Z,0.00
2023-05-10T21:15:33.721Z,0.00
2023-05-10T21:18:01.713Z,0.00
2023-05-10T21:20:30.600Z,0.00
2023-05-10T21:22:58.644Z,0.00
2023-05-10T21:25:27.004Z,0.00
2023-05-10T21:27:56.332Z,0.03
2023-05-10T21:30:24.493Z,0.00
2023-05-10T21:32:54.020Z,0.00
2023-05-10T21:35:22.201Z,0.00
2023-05-10T21:37:50.118Z,0.00
2023-05-10T21:40:18.707Z,0.08
2023-05-10T21:42:49.562Z,0.00
2023-05-10T21:45:20.220Z,0.10
2023-05-10T21:47:49.369Z,0.00
2023-05-10T21:50:17.578Z,0.00
2023-05-10T21:52:46.004Z,0.00
2023-05-10T21:55:13.889Z,0.10
2023-05-10T21:57:42.301Z,0.00
2023-05-10T22:00:11.276Z,0.00
2023-05-10T22:02:41.910Z,0.00
2023-05-10T22:05:10.565Z,0.00
2023-05-10T22:07:38.797Z,0.00
2023-05-10T22:10:07.971Z,0.00
2023-05-10T22:12:36.086Z,0.05
2023-05-10T22:15:10.321Z,0.00
2023-05-10T22:17:40.000Z,0.00
2023-05-10T22:20:10.647Z,0.10
2023-05-10T22:22:38.601Z,0.00
2023-05-10T22:25:08.100Z,0.00
2023-05-10T22:27:36.788Z,0.00
2023-05-10T22:30:06.093Z,0.00
2023-05-10T22:32:34.373Z,0.10
2023-05-10T22:35:03.213Z,0.00
2023-05-10T22:37:32.668Z,0.00
2023-05-10T22:40:00.616Z,0.00
2023-05-10T22:42:29.000Z,0.00
2023-05-10T22:44:57.259Z,0.00
2023-05-10T22:47:25.292Z,0.03
2023-05-10T22:49:53.445Z,0.00
2023-05-10T22:52:21.551Z,0.00
2023-05-10T22:54:51.129Z,0.00
2023-05-10T22:57:19.441Z,0.00
2023-05-10T22:59:48.797Z,0.00
2023-05-10T23:02:18.022Z,0.10
2023-05-10T23:04:46.539Z,0.05
2023-05-10T23:07:14.594Z,0.10
2023-05-10T23:09:42.742Z,0.00
2023-05-10T23:12:12.162Z,0.10
2023-05-10T23:14:40.182Z,0.00
2023-05-10T23:17:08.261Z,0.30
2023-05-10T23:19:36.316Z,0.10
2023-05-10T23:22:04.396Z,0.45
2023-05-10T23:24:32.479Z,0.30
2023-05-10T23:27:00.443Z,0.65
2023-05-10T23:29:30.224Z,0.35
2023-05-10T23:31:58.402Z,0.35
2023-05-10T23:34:26.512Z,0.45
2023-05-10T23:36:54.488Z,0.20
2023-05-10T23:39:23.125Z,0.10
2023-05-10T23:41:51.777Z,0.25
2023-05-10T23:44:20.042Z,0.20
2023-05-10T23:46:49.614Z,0.50
2023-05-10T23:49:18.367Z,0.13
2023-05-10T23:51:46.508Z,0.73
2023-05-10T23:54:14.689Z,1.02
2023-05-10T23:56:43.090Z,0.68
2023-05-10T23:59:11.509Z,0.73
